sensor_id;sensor_type;location;lat;lon;timestamp;P1;durP1;ratioP1;P2;durP2;ratioP2
325;SDS011;150;52.352;14.058;2022-08-01T00:01:30;3.60;;;3.00;;
325;SDS011;150;52.352;14.058;2022-08-01T00:03:57;3.85;;;3.38;;
325;SDS011;150;52.352;14.058;2022-08-01T00:06:23;4.00;;;3.10;;
325;SDS011;150;52.352;14.058;2022-08-01T00:08:50;3.28;;;2.90;;
325;SDS011;150;52.352;14.058;2022-08-01T00:11:18;3.60;;;2.90;;
325;SDS011;150;52.352;14.058;2022-08-01T00:13:44;4.35;;;3.40;;
325;SDS011;150;52.352;14.058;2022-08-01T00:16:11;4.45;;;3.15;;
325;SDS011;150;52.352;14.058;2022-08-01T00:18:38;6.00;;;3.20;;
325;SDS011;150;52.352;14.058;2022-08-01T00:21:04;3.43;;;2.90;;
325;SDS011;150;52.352;14.058;2022-08-01T00:23:31;3.65;;;2.83;;
325;SDS011;150;52.352;14.058;2022-08-01T00:25:58;3.95;;;3.67;;
325;SDS011;150;52.352;14.058;2022-08-01T00:28:26;4.10;;;3.00;;
325;SDS011;150;52.352;14.058;2022-08-01T00:30:52;3.50;;;2.40;;
325;SDS011;150;52.352;14.058;2022-08-01T00:33:19;3.53;;;3.10;;
325;SDS011;150;52.352;14.058;2022-08-01T00:35:46;3.42;;;3.08;;
325;SDS011;150;52.352;14.058;2022-08-01T00:38:12;4.40;;;3.20;;
325;SDS011;150;52.352;14.058;2022-08-01T00:40:39;4.82;;;2.78;;
325;SDS011;150;52.352;14.058;2022-08-01T00:43:06;4.63;;;3.00;;
325;SDS011;150;52.352;14.058;2022-08-01T00:45:34;4.10;;;2.67;;
325;SDS011;150;52.352;14.058;2022-08-01T00:48:00;4.80;;;3.60;;
325;SDS011;150;52.352;14.058;2022-08-01T00:50:27;5.53;;;3.28;;
325;SDS011;150;52.352;14.058;2022-08-01T00:52:54;3.55;;;3.03;;
325;SDS011;150;52.352;14.058;2022-08-01T00:55:21;4.00;;;2.90;;
325;SDS011;150;52.352;14.058;2022-08-01T00:57:48;3.13;;;2.60;;
325;SDS011;150;52.352;14.058;2022-08-01T01:00:16;3.00;;;2.83;;
325;SDS011;150;52.352;14.058;2022-08-01T01:02:44;4.15;;;2.78;;
325;SDS011;150;52.352;14.058;2022-08-01T01:05:11;4.10;;;2.90;;
325;SDS011;150;52.352;14.058;2022-08-01T01:07:40;3.60;;;2.90;;
325;SDS011;150;52.352;14.058;2022-08-01T01:10:15;3.60;;;3.00;;
325;SDS011;150;52.352;14.058;2022-08-01T01:12:47;3.78;;;2.60;;
325;SDS011;150;52.352;14.058;2022-08-01T01:15:21;4.45;;;3.03;;
325;SDS011;150;52.352;14.058;2022-08-01T01:17:55;4.63;;;2.95;;
325;SDS011;150;52.352;14.058;2022-08-01T01:20:24;3.60;;;3.10;;
325;SDS011;150;52.352;14.058;2022-08-01T01:22:59;3.95;;;3.45;;
325;SDS011;150;52.352;14.058;2022-08-01T01:25:45;4.53;;;3.00;;
325;SDS011;150;52.352;14.058;2022-08-01T01:28:20;4.63;;;3.42;;
325;SDS011;150;52.352;14.058;2022-08-01T01:30:57;3.65;;;3.45;;
325;SDS011;150;52.352;14.058;2022-08-01T01:33:26;5.13;;;3.58;;
325;SDS011;150;52.352;14.058;2022-08-01T01:35:57;5.60;;;3.28;;
325;SDS011;150;52.352;14.058;2022-08-01T01:38:39;4.40;;;3.20;;
325;SDS011;150;52.352;14.058;2022-08-01T01:41:08;4.85;;;3.55;;
325;SDS011;150;52.352;14.058;2022-08-01T01:43:37;5.10;;;3.78;;
325;SDS011;150;52.352;14.058;2022-08-01T01:46:06;3.47;;;3.25;;
325;SDS011;150;52.352;14.058;2022-08-01T01:48:35;3.95;;;3.30;;
325;SDS011;150;52.352;14.058;2022-08-01T01:51:02;4.05;;;3.65;;
325;SDS011;150;52.352;14.058;2022-08-01T01:53:30;4.53;;;3.60;;
325;SDS011;150;52.352;14.058;2022-08-01T01:55:59;4.03;;;3.53;;
325;SDS011;150;52.352;14.058;2022-08-01T01:58:27;3.80;;;3.57;;
325;SDS011;150;52.352;14.058;2022-08-01T02:00:57;4.18;;;3.50;;
325;SDS011;150;52.352;14.058;2022-08-01T02:03:28;4.53;;;3.65;;
325;SDS011;150;52.352;14.058;2022-08-01T02:05:56;5.47;;;3.60;;
325;SDS011;150;52.352;14.058;2022-08-01T02:08:23;3.88;;;3.72;;
325;SDS011;150;52.352;14.058;2022-08-01T02:10:51;4.07;;;3.40;;
325;SDS011;150;52.352;14.058;2022-08-01T02:13:38;4.07;;;3.67;;
325;SDS011;150;52.352;14.058;2022-08-01T02:16:06;4.97;;;3.92;;
325;SDS011;150;52.352;14.058;2022-08-01T02:18:37;5.35;;;3.50;;
325;SDS011;150;52.352;14.058;2022-08-01T02:21:05;4.13;;;3.47;;
325;SDS011;150;52.352;14.058;2022-08-01T02:23:37;5.53;;;3.53;;
325;SDS011;150;52.352;14.058;2022-08-01T02:26:06;5.43;;;3.65;;
325;SDS011;150;52.352;14.058;2022-08-01T02:28:38;4.85;;;3.85;;
325;SDS011;150;52.352;14.058;2022-08-01T02:31:10;6.60;;;4.20;;
325;SDS011;150;52.352;14.058;2022-08-01T02:33:42;3.30;;;3.10;;
325;SDS011;150;52.352;14.058;2022-08-01T02:36:10;5.10;;;3.92;;
325;SDS011;150;52.352;14.058;2022-08-01T02:38:40;4.00;;;3.80;;
325;SDS011;150;52.352;14.058;2022-08-01T02:41:09;4.53;;;3.45;;
325;SDS011;150;52.352;14.058;2022-08-01T02:43:40;4.38;;;4.10;;
325;SDS011;150;52.352;14.058;2022-08-01T02:46:18;5.15;;;3.70;;
325;SDS011;150;52.352;14.058;2022-08-01T02:48:50;4.20;;;3.30;;
325;SDS011;150;52.352;14.058;2022-08-01T02:51:19;5.63;;;4.10;;
325;SDS011;150;52.352;14.058;2022-08-01T02:53:49;4.88;;;3.55;;
325;SDS011;150;52.352;14.058;2022-08-01T02:56:17;4.87;;;4.20;;
325;SDS011;150;52.352;14.058;2022-08-01T02:58:46;4.20;;;3.72;;
325;SDS011;150;52.352;14.058;2022-08-01T03:01:15;4.70;;;2.90;;
325;SDS011;150;52.352;14.058;2022-08-01T03:03:44;4.82;;;4.00;;
325;SDS011;150;52.352;14.058;2022-08-01T03:06:13;4.68;;;4.07;;
325;SDS011;150;52.352;14.058;2022-08-01T03:08:41;4.88;;;3.90;;
325;SDS011;150;52.352;14.058;2022-08-01T03:11:08;4.05;;;3.65;;
325;SDS011;150;52.352;14.058;2022-08-01T03:13:37;4.60;;;4.40;;
325;SDS011;150;52.352;14.058;2022-08-01T03:16:04;3.97;;;3.63;;
325;SDS011;150;52.352;14.058;2022-08-01T03:18:31;4.30;;;3.70;;
325;SDS011;150;52.352;14.058;2022-08-01T03:20:59;5.28;;;4.18;;
325;SDS011;150;52.352;14.058;2022-08-01T03:23:29;3.97;;;3.60;;
325;SDS011;150;52.352;14.058;2022-08-01T03:25:57;5.40;;;4.03;;
325;SDS011;150;52.352;14.058;2022-08-01T03:28:26;4.10;;;3.70;;
325;SDS011;150;52.352;14.058;2022-08-01T03:30:55;4.53;;;4.30;;
325;SDS011;150;52.352;14.058;2022-08-01T03:33:22;4.88;;;4.38;;
325;SDS011;150;52.352;14.058;2022-08-01T03:35:49;5.10;;;4.30;;
325;SDS011;150;52.352;14.058;2022-08-01T03:38:22;5.10;;;4.50;;
325;SDS011;150;52.352;14.058;2022-08-01T03:40:53;6.05;;;4.60;;
325;SDS011;150;52.352;14.058;2022-08-01T03:43:22;4.40;;;4.05;;
325;SDS011;150;52.352;14.058;2022-08-01T03:45:55;4.70;;;4.10;;
325;SDS011;150;52.352;14.058;2022-08-01T03:48:28;4.80;;;3.97;;
325;SDS011;150;52.352;14.058;2022-08-01T03:50:59;4.43;;;3.90;;
325;SDS011;150;52.352;14.058;2022-08-01T03:53:28;7.03;;;4.03;;
325;SDS011;150;52.352;14.058;2022-08-01T03:55:59;5.55;;;4.60;;
325;SDS011;150;52.352;14.058;2022-08-01T03:58:28;4.90;;;4.30;;
325;SDS011;150;52.352;14.058;2022-08-01T04:00:55;4.65;;;4.43;;
325;SDS011;150;52.352;14.058;2022-08-01T04:03:23;4.72;;;4.32;;
325;SDS011;150;52.352;14.058;2022-08-01T04:05:50;5.97;;;4.30;;
325;SDS011;150;52.352;14.058;2022-08-01T04:08:16;6.07;;;5.22;;
325;SDS011;150;52.352;14.058;2022-08-01T04:10:43;6.05;;;5.55;;
325;SDS011;150;52.352;14.058;2022-08-01T04:13:11;5.35;;;5.05;;
325;SDS011;150;52.352;14.058;2022-08-01T04:15:38;4.57;;;4.10;;
325;SDS011;150;52.352;14.058;2022-08-01T04:18:04;4.13;;;3.90;;
325;SDS011;150;52.352;14.058;2022-08-01T04:20:31;6.28;;;5.20;;
325;SDS011;150;52.352;14.058;2022-08-01T04:22:58;5.30;;;4.47;;
325;SDS011;150;52.352;14.058;2022-08-01T04:25:26;5.70;;;5.32;;
325;SDS011;150;52.352;14.058;2022-08-01T04:27:57;5.53;;;5.22;;
325;SDS011;150;52.352;14.058;2022-08-01T04:30:31;5.38;;;5.07;;
325;SDS011;150;52.352;14.058;2022-08-01T04:33:01;4.68;;;4.40;;
325;SDS011;150;52.352;14.058;2022-08-01T04:35:31;5.70;;;4.25;;
325;SDS011;150;52.352;14.058;2022-08-01T04:37:58;5.13;;;4.13;;
325;SDS011;150;52.352;14.058;2022-08-01T04:40:28;4.30;;;3.95;;
325;SDS011;150;52.352;14.058;2022-08-01T04:42:55;5.28;;;4.00;;
325;SDS011;150;52.352;14.058;2022-08-01T04:45:22;5.57;;;4.30;;
325;SDS011;150;52.352;14.058;2022-08-01T04:47:51;5.05;;;3.80;;
325;SDS011;150;52.352;14.058;2022-08-01T04:50:18;4.85;;;4.50;;
325;SDS011;150;52.352;14.058;2022-08-01T04:52:46;4.82;;;4.40;;
325;SDS011;150;52.352;14.058;2022-08-01T04:55:13;4.63;;;3.83;;
325;SDS011;150;52.352;14.058;2022-08-01T04:57:42;4.40;;;3.90;;
325;SDS011;150;52.352;14.058;2022-08-01T05:00:11;5.07;;;4.07;;
325;SDS011;150;52.352;14.058;2022-08-01T05:02:38;4.25;;;3.97;;
325;SDS011;150;52.352;14.058;2022-08-01T05:05:07;4.60;;;3.70;;
325;SDS011;150;52.352;14.058;2022-08-01T05:07:35;6.10;;;4.10;;
325;SDS011;150;52.352;14.058;2022-08-01T05:10:02;4.88;;;4.18;;
325;SDS011;150;52.352;14.058;2022-08-01T05:12:29;5.30;;;3.90;;
325;SDS011;150;52.352;14.058;2022-08-01T05:14:57;6.40;;;3.70;;
325;SDS011;150;52.352;14.058;2022-08-01T05:17:24;6.50;;;3.70;;
325;SDS011;150;52.352;14.058;2022-08-01T05:19:50;6.35;;;3.63;;
325;SDS011;150;52.352;14.058;2022-08-01T05:22:18;4.88;;;4.00;;
325;SDS011;150;52.352;14.058;2022-08-01T05:24:45;4.22;;;3.75;;
325;SDS011;150;52.352;14.058;2022-08-01T05:27:12;4.60;;;3.60;;
325;SDS011;150;52.352;14.058;2022-08-01T05:29:38;5.40;;;3.83;;
325;SDS011;150;52.352;14.058;2022-08-01T05:32:06;4.57;;;4.07;;
325;SDS011;150;52.352;14.058;2022-08-01T05:34:32;5.05;;;4.05;;
325;SDS011;150;52.352;14.058;2022-08-01T05:36:59;5.57;;;3.70;;
325;SDS011;150;52.352;14.058;2022-08-01T05:39:27;4.80;;;3.60;;
325;SDS011;150;52.352;14.058;2022-08-01T05:41:54;6.13;;;4.80;;
325;SDS011;150;52.352;14.058;2022-08-01T05:44:20;5.75;;;5.00;;
325;SDS011;150;52.352;14.058;2022-08-01T05:46:47;4.13;;;3.47;;
325;SDS011;150;52.352;14.058;2022-08-01T05:49:14;5.40;;;3.60;;
325;SDS011;150;52.352;14.058;2022-08-01T05:51:40;4.40;;;3.92;;
325;SDS011;150;52.352;14.058;2022-08-01T05:54:07;5.72;;;4.50;;
325;SDS011;150;52.352;14.058;2022-08-01T05:56:35;7.30;;;4.18;;
325;SDS011;150;52.352;14.058;2022-08-01T05:59:02;5.88;;;4.70;;
325;SDS011;150;52.352;14.058;2022-08-01T06:01:28;5.80;;;5.40;;
325;SDS011;150;52.352;14.058;2022-08-01T06:03:55;7.15;;;4.80;;
325;SDS011;150;52.352;14.058;2022-08-01T06:06:22;7.43;;;4.57;;
325;SDS011;150;52.352;14.058;2022-08-01T06:08:48;6.05;;;5.20;;
325;SDS011;150;52.352;14.058;2022-08-01T06:11:16;6.65;;;5.63;;
325;SDS011;150;52.352;14.058;2022-08-01T06:13:45;8.68;;;6.80;;
325;SDS011;150;52.352;14.058;2022-08-01T06:16:11;7.50;;;5.68;;
325;SDS011;150;52.352;14.058;2022-08-01T06:18:38;7.43;;;5.90;;
325;SDS011;150;52.352;14.058;2022-08-01T06:21:05;7.32;;;5.97;;
325;SDS011;150;52.352;14.058;2022-08-01T06:23:31;6.82;;;5.32;;
325;SDS011;150;52.352;14.058;2022-08-01T06:25:58;6.93;;;5.68;;
325;SDS011;150;52.352;14.058;2022-08-01T06:28:24;7.07;;;5.70;;
325;SDS011;150;52.352;14.058;2022-08-01T06:30:52;7.18;;;5.90;;
325;SDS011;150;52.352;14.058;2022-08-01T06:33:19;6.72;;;5.70;;
325;SDS011;150;52.352;14.058;2022-08-01T06:35:46;5.22;;;4.88;;
325;SDS011;150;52.352;14.058;2022-08-01T06:38:12;6.97;;;6.00;;
325;SDS011;150;52.352;14.058;2022-08-01T06:40:39;7.25;;;6.10;;
325;SDS011;150;52.352;14.058;2022-08-01T06:43:06;8.52;;;6.00;;
325;SDS011;150;52.352;14.058;2022-08-01T06:45:33;11.70;;;10.27;;
325;SDS011;150;52.352;14.058;2022-08-01T06:48:03;6.70;;;5.50;;
325;SDS011;150;52.352;14.058;2022-08-01T06:50:30;5.25;;;4.95;;
325;SDS011;150;52.352;14.058;2022-08-01T06:52:57;5.68;;;5.38;;
325;SDS011;150;52.352;14.058;2022-08-01T06:55:24;5.63;;;5.30;;
325;SDS011;150;52.352;14.058;2022-08-01T06:57:51;7.28;;;5.80;;
325;SDS011;150;52.352;14.058;2022-08-01T07:00:19;5.40;;;5.15;;
325;SDS011;150;52.352;14.058;2022-08-01T07:02:47;5.95;;;4.70;;
325;SDS011;150;52.352;14.058;2022-08-01T07:05:15;5.65;;;4.85;;
325;SDS011;150;52.352;14.058;2022-08-01T07:07:42;6.75;;;6.03;;
325;SDS011;150;52.352;14.058;2022-08-01T07:10:09;5.57;;;5.20;;
325;SDS011;150;52.352;14.058;2022-08-01T07:12:36;8.05;;;5.00;;
325;SDS011;150;52.352;14.058;2022-08-01T07:15:03;7.32;;;5.93;;
325;SDS011;150;52.352;14.058;2022-08-01T07:17:31;7.22;;;5.93;;
325;SDS011;150;52.352;14.058;2022-08-01T07:19:57;5.20;;;4.75;;
325;SDS011;150;52.352;14.058;2022-08-01T07:22:25;5.63;;;5.00;;
325;SDS011;150;52.352;14.058;2022-08-01T07:24:52;4.97;;;4.37;;
325;SDS011;150;52.352;14.058;2022-08-01T07:27:19;6.10;;;5.80;;
325;SDS011;150;52.352;14.058;2022-08-01T07:29:45;6.20;;;4.60;;
325;SDS011;150;52.352;14.058;2022-08-01T07:32:12;4.07;;;3.88;;
325;SDS011;150;52.352;14.058;2022-08-01T07:34:38;3.78;;;3.63;;
325;SDS011;150;52.352;14.058;2022-08-01T07:37:05;5.07;;;4.00;;
325;SDS011;150;52.352;14.058;2022-08-01T07:39:33;5.63;;;4.82;;
325;SDS011;150;52.352;14.058;2022-08-01T07:42:00;9.65;;;8.00;;
325;SDS011;150;52.352;14.058;2022-08-01T07:44:26;6.30;;;5.22;;
325;SDS011;150;52.352;14.058;2022-08-01T07:46:53;4.80;;;3.78;;
325;SDS011;150;52.352;14.058;2022-08-01T07:49:20;4.97;;;2.80;;
325;SDS011;150;52.352;14.058;2022-08-01T07:51:48;3.00;;;2.58;;
325;SDS011;150;52.352;14.058;2022-08-01T07:54:14;3.95;;;2.97;;
325;SDS011;150;52.352;14.058;2022-08-01T07:56:42;5.17;;;3.73;;
325;SDS011;150;52.352;14.058;2022-08-01T07:59:09;3.10;;;2.97;;
325;SDS011;150;52.352;14.058;2022-08-01T08:01:36;3.47;;;3.13;;
325;SDS011;150;52.352;14.058;2022-08-01T08:04:02;3.60;;;2.60;;
325;SDS011;150;52.352;14.058;2022-08-01T08:06:29;3.05;;;2.78;;
325;SDS011;150;52.352;14.058;2022-08-01T08:08:56;3.80;;;2.70;;
325;SDS011;150;52.352;14.058;2022-08-01T08:11:22;4.28;;;3.08;;
325;SDS011;150;52.352;14.058;2022-08-01T08:13:50;4.10;;;2.58;;
325;SDS011;150;52.352;14.058;2022-08-01T08:16:17;3.47;;;2.90;;
325;SDS011;150;52.352;14.058;2022-08-01T08:18:43;3.42;;;3.33;;
325;SDS011;150;52.352;14.058;2022-08-01T08:21:10;2.80;;;2.37;;
325;SDS011;150;52.352;14.058;2022-08-01T08:23:37;3.40;;;2.50;;
325;SDS011;150;52.352;14.058;2022-08-01T08:26:21;2.40;;;2.00;;
325;SDS011;150;52.352;14.058;2022-08-01T08:28:48;2.67;;;1.95;;
325;SDS011;150;52.352;14.058;2022-08-01T08:31:16;2.13;;;1.80;;
325;SDS011;150;52.352;14.058;2022-08-01T08:33:43;2.80;;;2.20;;
325;SDS011;150;52.352;14.058;2022-08-01T08:36:09;2.90;;;2.00;;
325;SDS011;150;52.352;14.058;2022-08-01T08:38:37;3.00;;;2.00;;
325;SDS011;150;52.352;14.058;2022-08-01T08:41:03;3.15;;;2.38;;
325;SDS011;150;52.352;14.058;2022-08-01T08:43:30;2.40;;;1.90;;
325;SDS011;150;52.352;14.058;2022-08-01T08:45:57;3.60;;;1.60;;
325;SDS011;150;52.352;14.058;2022-08-01T08:48:25;2.40;;;1.80;;
325;SDS011;150;52.352;14.058;2022-08-01T08:50:53;2.60;;;1.88;;
325;SDS011;150;52.352;14.058;2022-08-01T08:53:21;2.30;;;1.83;;
325;SDS011;150;52.352;14.058;2022-08-01T08:55:48;2.20;;;2.00;;
325;SDS011;150;52.352;14.058;2022-08-01T08:58:15;2.95;;;1.90;;
325;SDS011;150;52.352;14.058;2022-08-01T09:00:44;2.30;;;1.35;;
325;SDS011;150;52.352;14.058;2022-08-01T09:03:11;2.20;;;1.60;;
325;SDS011;150;52.352;14.058;2022-08-01T09:05:39;2.20;;;1.50;;
325;SDS011;150;52.352;14.058;2022-08-01T09:08:06;2.75;;;1.80;;
325;SDS011;150;52.352;14.058;2022-08-01T09:10:33;2.00;;;1.57;;
325;SDS011;150;52.352;14.058;2022-08-01T09:13:07;3.53;;;2.83;;
325;SDS011;150;52.352;14.058;2022-08-01T09:15:42;4.90;;;2.80;;
325;SDS011;150;52.352;14.058;2022-08-01T09:18:25;3.80;;;3.60;;
325;SDS011;150;52.352;14.058;2022-08-01T09:21:11;4.22;;;3.80;;
325;SDS011;150;52.352;14.058;2022-08-01T09:23:42;2.85;;;2.20;;
325;SDS011;150;52.352;14.058;2022-08-01T09:26:11;4.60;;;2.65;;
325;SDS011;150;52.352;14.058;2022-08-01T09:28:38;3.80;;;2.80;;
325;SDS011;150;52.352;14.058;2022-08-01T09:31:06;6.80;;;3.22;;
325;SDS011;150;52.352;14.058;2022-08-01T09:33:47;4.70;;;3.50;;
325;SDS011;150;52.352;14.058;2022-08-01T09:36:20;2.90;;;2.35;;
325;SDS011;150;52.352;14.058;2022-08-01T09:38:47;4.10;;;2.15;;
325;SDS011;150;52.352;14.058;2022-08-01T09:41:15;2.60;;;2.30;;
325;SDS011;150;52.352;14.058;2022-08-01T09:43:47;4.50;;;2.40;;
325;SDS011;150;52.352;14.058;2022-08-01T09:46:15;2.63;;;1.92;;
325;SDS011;150;52.352;14.058;2022-08-01T09:48:54;3.40;;;2.42;;
325;SDS011;150;52.352;14.058;2022-08-01T09:51:31;4.38;;;3.50;;
325;SDS011;150;52.352;14.058;2022-08-01T09:54:00;3.50;;;2.90;;
325;SDS011;150;52.352;14.058;2022-08-01T09:56:34;2.80;;;2.30;;
325;SDS011;150;52.352;14.058;2022-08-01T09:59:02;3.60;;;2.37;;
325;SDS011;150;52.352;14.058;2022-08-01T10:01:41;3.40;;;2.60;;
325;SDS011;150;52.352;14.058;2022-08-01T10:04:10;8.93;;;8.45;;
325;SDS011;150;52.352;14.058;2022-08-01T10:06:40;5.55;;;4.05;;
325;SDS011;150;52.352;14.058;2022-08-01T10:09:09;3.75;;;2.67;;
325;SDS011;150;52.352;14.058;2022-08-01T10:11:36;3.60;;;3.00;;
325;SDS011;150;52.352;14.058;2022-08-01T10:14:05;3.25;;;2.70;;
325;SDS011;150;52.352;14.058;2022-08-01T10:16:33;4.50;;;3.03;;
325;SDS011;150;52.352;14.058;2022-08-01T10:19:01;4.45;;;3.40;;
325;SDS011;150;52.352;14.058;2022-08-01T10:21:31;4.60;;;3.33;;
325;SDS011;150;52.352;14.058;2022-08-01T10:24:01;3.85;;;3.05;;
325;SDS011;150;52.352;14.058;2022-08-01T10:26:29;3.30;;;2.95;;
325;SDS011;150;52.352;14.058;2022-08-01T10:28:59;3.22;;;2.65;;
325;SDS011;150;52.352;14.058;2022-08-01T10:31:26;3.13;;;2.40;;
325;SDS011;150;52.352;14.058;2022-08-01T10:33:57;3.90;;;2.30;;
325;SDS011;150;52.352;14.058;2022-08-01T10:36:24;3.90;;;3.35;;
325;SDS011;150;52.352;14.058;2022-08-01T10:38:52;3.20;;;2.80;;
325;SDS011;150;52.352;14.058;2022-08-01T10:41:21;2.60;;;1.95;;
325;SDS011;150;52.352;14.058;2022-08-01T10:43:50;3.50;;;2.28;;
325;SDS011;150;52.352;14.058;2022-08-01T10:46:17;2.80;;;2.00;;
325;SDS011;150;52.352;14.058;2022-08-01T10:48:47;2.63;;;1.73;;
325;SDS011;150;52.352;14.058;2022-08-01T10:51:20;2.87;;;1.70;;
325;SDS011;150;52.352;14.058;2022-08-01T10:53:47;6.17;;;5.10;;
325;SDS011;150;52.352;14.058;2022-08-01T10:56:16;2.70;;;1.90;;
325;SDS011;150;52.352;14.058;2022-08-01T10:58:45;3.47;;;1.50;;
325;SDS011;150;52.352;14.058;2022-08-01T11:01:18;2.90;;;1.45;;
325;SDS011;150;52.352;14.058;2022-08-01T11:03:57;2.80;;;1.70;;
325;SDS011;150;52.352;14.058;2022-08-01T11:06:28;5.55;;;5.20;;
325;SDS011;150;52.352;14.058;2022-08-01T11:09:06;3.53;;;1.80;;
325;SDS011;150;52.352;14.058;2022-08-01T11:11:58;1.90;;;1.30;;
325;SDS011;150;52.352;14.058;2022-08-01T11:14:29;1.80;;;1.00;;
325;SDS011;150;52.352;14.058;2022-08-01T11:17:11;1.60;;;1.20;;
325;SDS011;150;52.352;14.058;2022-08-01T11:20:06;4.68;;;4.43;;
325;SDS011;150;52.352;14.058;2022-08-01T11:26:08;2.85;;;1.42;;
325;SDS011;150;52.352;14.058;2022-08-01T11:28:36;2.90;;;1.20;;
325;SDS011;150;52.352;14.058;2022-08-01T11:33:54;2.80;;;1.30;;
325;SDS011;150;52.352;14.058;2022-08-01T11:36:21;3.38;;;1.50;;
325;SDS011;150;52.352;14.058;2022-08-01T11:38:48;2.20;;;1.60;;
325;SDS011;150;52.352;14.058;2022-08-01T11:41:35;2.67;;;1.65;;
325;SDS011;150;52.352;14.058;2022-08-01T11:44:03;2.92;;;1.40;;
325;SDS011;150;52.352;14.058;2022-08-01T11:46:48;2.35;;;1.50;;
325;SDS011;150;52.352;14.058;2022-08-01T11:49:34;2.45;;;1.80;;
325;SDS011;150;52.352;14.058;2022-08-01T11:52:24;2.30;;;1.63;;
325;SDS011;150;52.352;14.058;2022-08-01T11:54:53;1.90;;;1.40;;
325;SDS011;150;52.352;14.058;2022-08-01T11:57:22;4.00;;;1.80;;
325;SDS011;150;52.352;14.058;2022-08-01T11:59:51;2.60;;;1.40;;
325;SDS011;150;52.352;14.058;2022-08-01T12:02:21;3.40;;;1.60;;
325;SDS011;150;52.352;14.058;2022-08-01T12:04:50;2.90;;;1.50;;
325;SDS011;150;52.352;14.058;2022-08-01T12:07:21;2.10;;;1.60;;
325;SDS011;150;52.352;14.058;2022-08-01T12:09:55;2.40;;;1.60;;
325;SDS011;150;52.352;14.058;2022-08-01T12:12:23;3.08;;;1.58;;
325;SDS011;150;52.352;14.058;2022-08-01T12:14:52;2.50;;;1.63;;
325;SDS011;150;52.352;14.058;2022-08-01T12:17:28;2.00;;;1.35;;
325;SDS011;150;52.352;14.058;2022-08-01T12:19:58;3.40;;;1.30;;
325;SDS011;150;52.352;14.058;2022-08-01T12:22:25;3.90;;;1.93;;
325;SDS011;150;52.352;14.058;2022-08-01T12:24:52;1.90;;;1.50;;
325;SDS011;150;52.352;14.058;2022-08-01T12:27:26;2.20;;;1.38;;
325;SDS011;150;52.352;14.058;2022-08-01T12:29:54;2.30;;;1.60;;
325;SDS011;150;52.352;14.058;2022-08-01T12:32:22;3.10;;;1.60;;
325;SDS011;150;52.352;14.058;2022-08-01T12:34:52;2.33;;;1.42;;
325;SDS011;150;52.352;14.058;2022-08-01T12:37:20;2.10;;;1.50;;
325;SDS011;150;52.352;14.058;2022-08-01T12:39:47;2.50;;;1.70;;
325;SDS011;150;52.352;14.058;2022-08-01T12:42:14;3.10;;;1.33;;
325;SDS011;150;52.352;14.058;2022-08-01T12:44:41;2.45;;;1.40;;
325;SDS011;150;52.352;14.058;2022-08-01T12:47:11;2.13;;;1.30;;
325;SDS011;150;52.352;14.058;2022-08-01T12:49:40;2.10;;;1.60;;
325;SDS011;150;52.352;14.058;2022-08-01T12:52:09;2.30;;;1.33;;
325;SDS011;150;52.352;14.058;2022-08-01T12:57:33;8.43;;;5.00;;
325;SDS011;150;52.352;14.058;2022-08-01T13:00:07;1.93;;;1.33;;
325;SDS011;150;52.352;14.058;2022-08-01T13:02:36;6.47;;;1.90;;
325;SDS011;150;52.352;14.058;2022-08-01T13:05:04;3.50;;;1.25;;
325;SDS011;150;52.352;14.058;2022-08-01T13:07:37;1.70;;;0.90;;
325;SDS011;150;52.352;14.058;2022-08-01T13:10:05;2.95;;;1.00;;
325;SDS011;150;52.352;14.058;2022-08-01T13:12:32;2.08;;;1.00;;
325;SDS011;150;52.352;14.058;2022-08-01T13:14:59;1.83;;;0.90;;
325;SDS011;150;52.352;14.058;2022-08-01T13:17:32;2.00;;;1.00;;
325;SDS011;150;52.352;14.058;2022-08-01T13:20:01;1.80;;;1.10;;
325;SDS011;150;52.352;14.058;2022-08-01T13:22:33;1.60;;;0.82;;
325;SDS011;150;52.352;14.058;2022-08-01T13:25:12;1.70;;;0.80;;
325;SDS011;150;52.352;14.058;2022-08-01T13:27:39;1.52;;;0.90;;
325;SDS011;150;52.352;14.058;2022-08-01T13:30:13;3.78;;;1.40;;
325;SDS011;150;52.352;14.058;2022-08-01T13:32:41;1.38;;;0.73;;
325;SDS011;150;52.352;14.058;2022-08-01T13:35:09;3.40;;;1.10;;
325;SDS011;150;52.352;14.058;2022-08-01T13:37:38;2.30;;;1.00;;
325;SDS011;150;52.352;14.058;2022-08-01T13:40:06;1.73;;;0.70;;
325;SDS011;150;52.352;14.058;2022-08-01T13:42:36;5.70;;;1.00;;
325;SDS011;150;52.352;14.058;2022-08-01T13:45:04;1.70;;;1.10;;
325;SDS011;150;52.352;14.058;2022-08-01T13:47:35;2.78;;;1.00;;
325;SDS011;150;52.352;14.058;2022-08-01T13:50:02;1.60;;;0.80;;
325;SDS011;150;52.352;14.058;2022-08-01T13:52:29;2.00;;;1.07;;
325;SDS011;150;52.352;14.058;2022-08-01T13:54:56;2.70;;;1.00;;
325;SDS011;150;52.352;14.058;2022-08-01T13:57:23;1.90;;;1.30;;
325;SDS011;150;52.352;14.058;2022-08-01T13:59:51;1.60;;;1.10;;
325;SDS011;150;52.352;14.058;2022-08-01T14:02:17;1.80;;;1.10;;
325;SDS011;150;52.352;14.058;2022-08-01T14:04:44;2.80;;;1.83;;
325;SDS011;150;52.352;14.058;2022-08-01T14:07:11;5.35;;;3.40;;
325;SDS011;150;52.352;14.058;2022-08-01T14:09:38;2.63;;;1.88;;
325;SDS011;150;52.352;14.058;2022-08-01T14:12:05;5.10;;;1.40;;
325;SDS011;150;52.352;14.058;2022-08-01T14:14:32;2.10;;;1.30;;
325;SDS011;150;52.352;14.058;2022-08-01T14:17:00;2.90;;;2.08;;
325;SDS011;150;52.352;14.058;2022-08-01T14:19:27;3.80;;;1.80;;
325;SDS011;150;52.352;14.058;2022-08-01T14:21:54;5.20;;;2.65;;
325;SDS011;150;52.352;14.058;2022-08-01T14:24:21;3.50;;;1.40;;
325;SDS011;150;52.352;14.058;2022-08-01T14:26:48;2.60;;;1.60;;
325;SDS011;150;52.352;14.058;2022-08-01T14:29:15;1.92;;;1.20;;
325;SDS011;150;52.352;14.058;2022-08-01T14:31:42;2.70;;;2.03;;
325;SDS011;150;52.352;14.058;2022-08-01T14:34:10;4.30;;;3.90;;
325;SDS011;150;52.352;14.058;2022-08-01T14:36:37;2.20;;;1.20;;
325;SDS011;150;52.352;14.058;2022-08-01T14:39:04;2.60;;;2.00;;
325;SDS011;150;52.352;14.058;2022-08-01T14:41:31;3.53;;;2.30;;
325;SDS011;150;52.352;14.058;2022-08-01T14:43:57;2.50;;;1.00;;
325;SDS011;150;52.352;14.058;2022-08-01T14:46:24;1.70;;;1.00;;
325;SDS011;150;52.352;14.058;2022-08-01T14:48:51;2.50;;;1.30;;
325;SDS011;150;52.352;14.058;2022-08-01T14:51:19;2.55;;;1.30;;
325;SDS011;150;52.352;14.058;2022-08-01T14:53:45;3.00;;;1.42;;
325;SDS011;150;52.352;14.058;2022-08-01T14:56:12;4.70;;;3.70;;
325;SDS011;150;52.352;14.058;2022-08-01T14:58:39;4.17;;;2.67;;
325;SDS011;150;52.352;14.058;2022-08-01T15:01:06;2.45;;;1.50;;
325;SDS011;150;52.352;14.058;2022-08-01T15:03:32;3.07;;;1.30;;
325;SDS011;150;52.352;14.058;2022-08-01T15:05:59;2.45;;;1.05;;
325;SDS011;150;52.352;14.058;2022-08-01T15:08:27;1.90;;;1.00;;
325;SDS011;150;52.352;14.058;2022-08-01T15:10:55;1.70;;;1.00;;
325;SDS011;150;52.352;14.058;2022-08-01T15:13:21;1.50;;;0.90;;
325;SDS011;150;52.352;14.058;2022-08-01T15:15:48;1.80;;;1.23;;
325;SDS011;150;52.352;14.058;2022-08-01T15:18:14;2.10;;;1.30;;
325;SDS011;150;52.352;14.058;2022-08-01T15:20:41;3.40;;;1.30;;
325;SDS011;150;52.352;14.058;2022-08-01T15:23:08;1.63;;;1.00;;
325;SDS011;150;52.352;14.058;2022-08-01T15:25:36;2.00;;;1.10;;
325;SDS011;150;52.352;14.058;2022-08-01T15:28:03;2.40;;;1.10;;
325;SDS011;150;52.352;14.058;2022-08-01T15:30:29;2.67;;;1.50;;
325;SDS011;150;52.352;14.058;2022-08-01T15:32:57;2.58;;;2.08;;
325;SDS011;150;52.352;14.058;2022-08-01T15:35:24;3.17;;;1.50;;
325;SDS011;150;52.352;14.058;2022-08-01T15:37:51;1.88;;;1.20;;
325;SDS011;150;52.352;14.058;2022-08-01T15:40:17;1.67;;;1.20;;
325;SDS011;150;52.352;14.058;2022-08-01T15:42:45;4.70;;;1.20;;
325;SDS011;150;52.352;14.058;2022-08-01T15:45:12;1.80;;;1.20;;
325;SDS011;150;52.352;14.058;2022-08-01T15:47:43;1.90;;;1.05;;
325;SDS011;150;52.352;14.058;2022-08-01T15:50:09;3.30;;;2.70;;